Kumasi Airport

DGSI · Ashanti, Ghana

METAR history DGSI · Kumasi Airport

Below you see METARs of the last few days. Select a year to browse through older METARs, from the year 2007 onwards.

November 27, 2022

Time Code Weather Temp. Visibility Ceiling Wind METAR/SPECI
15:00
V
29 °C 8 km 3,000 ft 200° 200° 6 kt METAR DIAP 271500Z 20006KT 150V240 8000 TS SCT013 FEW020CB BKN030 29/25 Q1007 TEMPO BKN013 FEW020CB
14:38
V
28 °C 8 km 3,000 ft 200° 200° 6 kt METAR DIAP 271438Z 20006KT 150V240 8000 TS SCT013 FEW020CB BKN030 28/25 Q1007 TEMPO BKN013 FEW020CB
14:30
V
29 °C 10 km+ - 210° 210° 8 kt METAR DIAP 271430Z 21008KT 160V230 9999 SCT013 FEW020CB 29/25 Q1007 TEMPO TS
14:14
V
29 °C 10 km+ - 210° 210° 8 kt METAR DIAP 271414Z 21008KT 9999 SCT013 FEW020CB 29/25 Q1007 TEMPO TS
14:00
M
30 °C 10 km+ 1,300 ft 210° 210° 10 kt METAR DIAP 271400Z 21010KT 170V240 9999 BKN013 FEW020CB 30/27 Q1008 TEMPO TS
13:30
M
30 °C 10 km+ 1,300 ft 210° 210° 10 kt METAR DIAP 271330Z 21010KT 170V240 9999 BKN013 FEW020CB 30/26 Q1008 TEMPO TS
13:00
M
28 °C 10 km+ 1,300 ft 210° 210° 9 kt METAR DIAP 271300Z 21009KT 9999 BKN013 FEW020CB 28/27 Q1008 TEMPO TS
12:30
M
29 °C 10 km+ 1,300 ft 210° 210° 10 kt METAR DIAP 271230Z 21010KT 9999 SCT006 BKN013 FEW020CB 29/27 Q1008 TEMPO TS
12:24
M
29 °C 10 km+ 1,300 ft 210° 210° 10 kt METAR DIAP 271224Z 21010KT 9999 SCT006 BKN013 FEW020CB 29/27 Q1008 TEMPO TS
12:00
V
29 °C 10 km+ - 220° 220° 10 kt METAR DIAP 271200Z 22010KT 9999 SCT013 FEW020CB 29/26 Q1009 TEMPO CLD BKN012 FEW020CB
11:30
V
29 °C 10 km+ - 230° 230° 8 kt METAR DIAP 271130Z 23008KT 190V250 9999 SCT013 FEW020CB 29/26 Q1010 TEMPO TS
11:00
V
30 °C 10 km+ - 230° 230° 7 kt METAR DIAP 271100Z 23007KT 200V260 9999 SCT013 FEW020CB 30/26 Q1010 TEMPO TS
10:30
V
30 °C 10 km+ - 220° 220° 10 kt METAR DIAP 271030Z 22010KT 190V260 9999 SCT013 FEW020CB 30/26 Q1010 TEMPO TS
10:00
V
30 °C 10 km+ - 200° 200° 9 kt METAR DIAP 271000Z 20009KT 9999 SCT013 30/26 Q1010 TEMPO BKN012
09:30
V
29 °C 10 km+ - 230° 230° 8 kt METAR DIAP 270930Z 23008KT 200V260 9999 SCT013 29/26 Q1010 NOSIG
09:00
V
29 °C 10 km+ - 230° 230° 7 kt METAR DIAP 270900Z 23007KT 190V250 9999 SCT013 29/26 Q1010 NOSIG
08:30
V
29 °C 10 km+ - 230° 230° 7 kt METAR DIAP 270830Z 23007KT 9999 FEW013 29/26 Q1010 NOSIG
08:00
V
28 °C 10 km+ - 230° 230° 6 kt METAR DIAP 270800Z 23006KT 9999 FEW013 28/26 Q1010 NOSIG
07:30
V
27 °C 10 km+ - 230° 230° 6 kt METAR DIAP 270730Z 23006KT 9999 FEW013 27/26 Q1009 NOSIG
07:00
V
27 °C 10 km+ - 230° 230° 6 kt METAR DIAP 270700Z 23006KT 9999 FEW013 27/26 Q1009 NOSIG
06:30
V
27 °C 10 km+ - 230° 230° 5 kt METAR DIAP 270630Z 23005KT 9999 FEW013 27/26 Q1009 NOSIG
06:00
V
27 °C 10 km+ - 230° 230° 6 kt METAR DIAP 270600Z 23006KT 9999 SCT013 27/26 Q1009 NOSIG
05:30
V
27 °C 10 km+ - 240° 240° 5 kt METAR DIAP 270530Z 24005KT 210V270 9999 SCT013 27/26 Q1009 NOSIG
05:00
V
27 °C 10 km+ - 230° 230° 5 kt METAR DIAP 270500Z 23005KT 9999 SCT013 27/26 Q1009 NOSIG
04:30
V
0 °C 10 km+ - 240° 240° 4 kt METAR DIAP 270430Z 24004KT 9999 SCT013 Q1009 NOSIG
04:00
V
27 °C 10 km+ - 230° 230° 7 kt METAR DIAP 270400Z 23007KT 9999 SCT013 27/26 Q1009 NOSIG
03:30
V
27 °C 10 km+ - 230° 230° 7 kt METAR DIAP 270330Z 23007KT 9999 SCT013 27/26 Q1009 NOSIG
03:00
V
28 °C 10 km+ - 240° 240° 7 kt METAR DIAP 270300Z 24007KT 9999 SCT013 28/27 Q1009 NOSIG
02:30
V
28 °C 10 km+ - 240° 240° 7 kt METAR DIAP 270230Z 24007KT 9999 SCT013 28/27 Q1009 NOSIG
02:00
V
28 °C 10 km+ - 210° 210° 8 kt METAR DIAP 270200Z 21008KT 9999 SCT013 28/26 Q1010 NOSIG
01:30
V
28 °C 10 km+ - 230° 230° 6 kt METAR DIAP 270130Z 23006KT 9999 SCT013 28/27 Q1010 NOSIG
01:00
V
27 °C 10 km+ - 230° 230° 6 kt METAR DIAP 270100Z 23006KT 210V270 9999 SCT013 27/27 Q1010 NOSIG
00:30
V
28 °C 10 km+ - 220° 220° 7 kt METAR DIAP 270030Z 22007KT 9999 SCT013 28/27 Q1011 NOSIG
00:00
V
28 °C 10 km+ - 220° 220° 7 kt METAR DIAP 270000Z 22007KT 9999 SCT013 28/27 Q1011 NOSIG

November 26, 2022

Time Code Weather Temp. Visibility Ceiling Wind METAR/SPECI
23:30
V
28 °C 10 km+ - 200° 200° 7 kt METAR DIAP 262330Z 20007KT 9999 SCT013 28/26 Q1011 NOSIG
23:00
V
28 °C 10 km+ - 200° 200° 7 kt METAR DIAP 262300Z 20007KT 9999 SCT013 28/27 Q1011 NOSIG
22:30
V
28 °C 10 km+ - 200° 200° 8 kt METAR DIAP 262230Z 20008KT 9999 SCT013 28/27 Q1011 NOSIG
22:00
V
28 °C 10 km+ - 200° 200° 8 kt METAR DIAP 262200Z 20008KT 9999 FEW013 28/27 Q1012 NOSIG
21:30
V
28 °C 10 km+ - 210° 210° 7 kt METAR DIAP 262130Z 21007KT 9999 FEW013 28/26 Q1011 NOSIG
21:00
V
28 °C 10 km+ - 210° 210° 7 kt METAR DIAP 262100Z 21007KT 9999 FEW013 28/26 Q1011 NOSIG
20:30
V
28 °C 10 km+ - 210° 210° 8 kt METAR DIAP 262030Z 21008KT 9999 SCT013 28/26 Q1011 NOSIG
20:00
V
28 °C 10 km+ - 200° 200° 7 kt METAR DIAP 262000Z 20007KT 9999 SCT013 28/26 Q1011 NOSIG
19:30
V
28 °C 10 km+ - 210° 210° 7 kt METAR DIAP 261930Z 21007KT 9999 FEW013 28/26 Q1010 NOSIG
19:00
V
28 °C 10 km+ - 200° 200° 7 kt METAR DIAP 261900Z 20007KT 9999 FEW013 28/26 Q1010 NOSIG
18:30
V
28 °C 10 km+ - 210° 210° 7 kt METAR DIAP 261830Z 21007KT 9999 FEW013 FEW020CB 28/26 Q1009 NOSIG
18:00
V
28 °C 10 km+ - 210° 210° 7 kt METAR DIAP 261800Z 21007KT 9999 FEW013 FEW020CB 28/26 Q1009 NOSIG
17:30
V
29 °C 10 km+ - 210° 210° 9 kt METAR DIAP 261730Z 21009KT 9999 FEW013 FEW020CB 29/26 Q1009 RETS NOSIG
17:22
V
29 °C 10 km+ - 210° 210° 9 kt METAR DIAP 261722Z 21009KT 9999 FEW013 FEW020CB 29/26 Q1009 RETS NOSIG
17:00
V
29 °C 10 km+ - 220° 220° 7 kt METAR DIAP 261700Z 22007KT 9999 TS SCT013 FEW020CB 29/26 Q1009 BECMG NSW
16:30
V
28 °C 10 km+ - 270° 270° 5 kt METAR DIAP 261630Z 27005KT 220V300 9999 TS SCT013 FEW020CB 28/27 Q1009 BECMG NSW
16:00
V
27 °C 10 km+ - 290° 290° 4 kt METAR DIAP 261600Z 29004KT 9999 TS FEW013 FEW020CB SCT024 27/26 Q1008 NOSIG
15:30
M
26 °C 8 km 2,400 ft 250° 250° 8 kt METAR DIAP 261530Z 25008KT 8000 -TSRA FEW014 FEW020CB BKN024 26/25 Q1008 RERA NOSIG
15:22
M
26 °C 6 km 2,400 ft 260° 260° 7 kt METAR DIAP 261522Z 26007KT 230V320 6000 -TSRA SCT014 FEW020CB BKN024 26/25 Q1008 TEMPO 3000 +TSRA
15:07
I
25 °C 3 km 2,400 ft 270° 270° 12 kt METAR DIAP 261507Z 27012KT 240V300 3000 TSRA SCT014 FEW020CB BKN024 25/25 Q1009 TEMPO 0800 +TSRA
15:00
M
30 °C 8 km 2,400 ft 350° 350° 8 kt METAR DIAP 261500Z 35008KT 320V020 8000 -TSRA SCT014 FEW020CB BKN024 30/26 Q1009 TEMPO 4000 TSRA
14:30
V
30 °C 8 km - 210° 210° 9 kt METAR DIAP 261430Z 21009KT 170V240 8000 TS FEW014 FEW020CB SCT023 30/26 Q1009 TEMPO 4000 TSRA BKN012 FEW020CB OVC024
14:00
V
30 °C 10 km+ - 220° 220° 10 kt METAR DIAP 261400Z 22010KT 180V240 9999 TS FEW014 FEW020CB 30/26 Q1009 NOSIG
13:51
V
30 °C 10 km+ - 210° 210° 10 kt METAR DIAP 261351Z 21010KT 180V240 9999 TS FEW014 FEW020CB 30/26 Q1009 NOSIG
13:30
V
31 °C 8 km - 210° 210° 11 kt METAR DIAP 261330Z 21011KT 180V240 8000 FEW014 FEW020CB 31/26 Q1010 TEMPO TS
13:00
V
30 °C 10 km+ - 210° 210° 11 kt METAR DIAP 261300Z 21011KT 160V240 9999 FEW014 FEW020CB 30/26 Q1010 NOSIG
12:30
V
30 °C 10 km+ - 210° 210° 11 kt METAR DIAP 261230Z 21011KT 9999 FEW014 FEW020CB 30/26 Q1011 NOSIG
12:00
V
30 °C 10 km+ - 220° 220° 12 kt METAR DIAP 261200Z 22012KT 190V250 9999 SCT014 30/27 Q1011 NOSIG
11:30
V
30 °C 10 km+ - 220° 220° 10 kt METAR DIAP 261130Z 22010KT 190V250 9999 SCT014 30/26 Q1011 NOSIG
11:00
V
30 °C 10 km+ - 220° 220° 10 kt METAR DIAP 261100Z 22010KT 190V260 9999 SCT014 30/26 Q1012 NOSIG
10:30
V
30 °C 10 km+ - 230° 230° 11 kt METAR DIAP 261030Z 23011KT 9999 FEW014 FEW018TCU 30/26 Q1012 NOSIG
10:00
V
30 °C 10 km+ - 210° 210° 9 kt METAR DIAP 261000Z 21009KT 180V240 9999 SCT014 30/26 Q1012 NOSIG
09:30
V
30 °C 10 km+ - 210° 210° 7 kt METAR DIAP 260930Z 21007KT 170V250 9999 SCT014 30/26 Q1012 NOSIG
09:00
V
29 °C 10 km+ - 220° 220° 7 kt METAR DIAP 260900Z 22007KT 200V260 9999 FEW010 SCT013 29/25 Q1012 NOSIG
08:30
V
29 °C 10 km+ - 230° 230° 8 kt METAR DIAP 260830Z 23008KT 9999 SCT013 29/27 Q1012 NOSIG
08:00
V
29 °C 10 km+ - 210° 210° 7 kt METAR DIAP 260800Z 21007KT 9999 FEW012 29/25 Q1011 NOSIG
07:30
V
28 °C 10 km+ - 200° 200° 6 kt METAR DIAP 260730Z 20006KT 9999 FEW012 28/26 Q1011 NOSIG
07:00
V
27 °C 10 km+ - 210° 210° 5 kt METAR DIAP 260700Z 21005KT 9999 FEW012 27/26 Q1011 NOSIG
06:30
V
27 °C 10 km+ - 200° 200° 5 kt METAR DIAP 260630Z 20005KT 9999 FEW012 27/26 Q1011 NOSIG
06:00
V
27 °C 9 km - 200° 200° 5 kt METAR DIAP 260600Z 20005KT 9000 FEW011 SCT018 27/27 Q1010 NOSIG
05:30
V
27 °C 9 km - 200° 200° 5 kt METAR DIAP 260530Z 20005KT 9000 FEW011 SCT020 27/27 Q1010 NOSIG
05:00
M
27 °C 9 km 2,000 ft 220° 220° 5 kt METAR DIAP 260500Z 22005KT 9000 FEW011 BKN020 27/26 Q1010 NOSIG
04:30
V
27 °C 9 km - 240° 240° 4 kt METAR DIAP 260430Z 24004KT 9000 FEW011 SCT020 27/26 Q1009 NOSIG
04:00
V
27 °C 9 km - 250° 250° 4 kt METAR DIAP 260400Z 25004KT 9000 FEW011 27/25 Q1010 NOSIG
03:30
V
27 °C 9 km - 220° 220° 5 kt METAR DIAP 260330Z 22005KT 9000 FEW011 27/25 Q1010 NOSIG
03:00
V
27 °C 9 km - 200° 200° 6 kt METAR DIAP 260300Z 20006KT 9000 FEW011 27/25 Q1010 NOSIG
02:30
V
27 °C 9 km 3,000 ft 210° 210° 6 kt METAR DIAP 260230Z 21006KT 9000 FEW011 BKN030 27/25 Q1010 NOSIG
02:00
V
27 °C 10 km+ - 230° 230° 5 kt METAR DIAP 260200Z 23005KT 9999 FEW011 27/25 Q1010 NOSIG
01:30
V
28 °C 10 km+ - 230° 230° 7 kt METAR DIAP 260130Z 23007KT 9999 FEW011 28/26 Q1011 NOSIG
01:00
V
27 °C 10 km+ - 220° 220° 6 kt METAR DIAP 260100Z 22006KT 9999 FEW011 27/26 Q1011 NOSIG
00:30
V
27 °C 10 km+ - 240° 240° 7 kt METAR DIAP 260030Z 24007KT 9999 FEW011 SCT020 27/26 Q1011 NOSIG
00:00
M
28 °C 10 km+ 2,500 ft 220° 220° 8 kt METAR DIAP 260000Z 22008KT 9999 FEW011 BKN025 28/26 Q1011 NOSIG

November 25, 2022

Time Code Weather Temp. Visibility Ceiling Wind METAR/SPECI
23:30
V
27 °C 10 km+ - 240° 240° 6 kt METAR DIAP 252330Z 24006KT 9999 FEW011 SCT020 27/27 Q1011 NOSIG
23:00
V
27 °C 10 km+ - 240° 240° 6 kt METAR DIAP 252300Z 24006KT 9999 FEW011 27/26 Q1012 NOSIG
22:30
V
27 °C 10 km+ - 260° 260° 5 kt METAR DIAP 252230Z 26005KT 210V290 9999 FEW011 27/26 Q1012 NOSIG
22:00
V
28 °C 10 km+ - 220° 220° 5 kt METAR DIAP 252200Z 22005KT 200V260 9999 FEW011 28/26 Q1012 NOSIG
21:30
V
28 °C 10 km+ - 220° 220° 6 kt METAR DIAP 252130Z 22006KT 9999 FEW011 28/26 Q1012 NOSIG
21:00
M
28 °C 10 km+ 1,900 ft 200° 200° 5 kt METAR DIAP 252100Z 20005KT 9999 FEW011 BKN019 28/26 Q1011 NOSIG
20:30
V
28 °C 10 km+ - 200° 200° 5 kt METAR DIAP 252030Z 20005KT 9999 FEW012 SCT020 28/26 Q1011 NOSIG
20:00
V
28 °C 10 km+ - 210° 210° 6 kt METAR DIAP 252000Z 21006KT 9999 FEW012 SCT020 28/26 Q1011 NOSIG
19:30
V
28 °C 10 km+ - 210° 210° 7 kt METAR DIAP 251930Z 21007KT 9999 FEW012 SCT020 28/26 Q1011 NOSIG
19:00
M
28 °C 10 km+ 2,000 ft 210° 210° 8 kt METAR DIAP 251900Z 21008KT 9999 FEW013 BKN020 28/26 Q1010 NOSIG
18:30
M
28 °C 10 km+ 2,000 ft 210° 210° 8 kt METAR DIAP 251830Z 21008KT 9999 FEW013 BKN020 28/26 Q1010 NOSIG
18:00
V
28 °C 10 km+ - 210° 210° 10 kt METAR DIAP 251800Z 21010KT 9999 FEW013 SCT020 28/26 Q1009 NOSIG
17:30
V
29 °C 10 km+ - 210° 210° 9 kt METAR DIAP 251730Z 21009KT 9999 FEW013 29/25 Q1009 NOSIG
17:00
V
29 °C 10 km+ - 210° 210° 9 kt METAR DIAP 251700Z 21009KT 9999 FEW013 FEW020CB 29/25 Q1009 NOSIG
16:30
V
29 °C 10 km+ - 210° 210° 9 kt METAR DIAP 251630Z 21009KT 9999 FEW013 FEW020CB 29/26 Q1009 NOSIG
16:00
V
29 °C 10 km+ - 210° 210° 10 kt METAR DIAP 251600Z 21010KT 9999 FEW013 29/26 Q1009 NOSIG
15:30
V
30 °C 10 km+ - 210° 210° 9 kt METAR DIAP 251530Z 21009KT 9999 FEW013 30/25 Q1009 NOSIG
15:00
V
30 °C 10 km+ - 190° 190° 8 kt METAR DIAP 251500Z 19008KT 160V220 9999 FEW013 30/25 Q1009 NOSIG
14:30
V
30 °C 10 km+ - 190° 190° 8 kt METAR DIAP 251430Z 19008KT 9999 FEW013 30/25 Q1009 NOSIG
14:00
V
31 °C 10 km+ - 180° 180° 7 kt METAR DIAP 251400Z 18007KT 140V220 9999 FEW013 31/25 Q1009 NOSIG
13:30
V
31 °C 10 km+ - 190° 190° 6 kt METAR DIAP 251330Z 19006KT 150V220 9999 FEW013 31/25 Q1010 NOSIG
13:00
V
30 °C 10 km+ - 200° 200° 7 kt METAR DIAP 251300Z 20007KT 150V230 9999 FEW013 30/25 Q1010 NOSIG
12:30
V
30 °C 10 km+ - 200° 200° 7 kt METAR DIAP 251230Z 20007KT 160V230 9999 FEW013 30/26 Q1010 NOSIG
12:00
V
31 °C 10 km+ - 210° 210° 6 kt METAR DIAP 251200Z 21006KT 150V240 9999 FEW013 31/25 Q1011 NOSIG
11:30
V
30 °C 10 km+ - 210° 210° 6 kt METAR DIAP 251130Z 21006KT 150V260 9999 FEW020 30/25 Q1011 NOSIG
11:00
V
30 °C 10 km+ - Var Var 4 kt METAR DIAP 251100Z VRB04KT 9999 FEW020 30/25 Q1011 NOSIG
10:30
V
29 °C 10 km+ - Var Var 2 kt METAR DIAP 251030Z VRB02KT 9999 FEW020 29/24 Q1012 NOSIG
10:00
V
29 °C 10 km+ - Var Var 2 kt METAR DIAP 251000Z VRB02KT 9999 FEW020 29/24 Q1012 NOSIG

We and third parties follow your internet behavior on our website with cookies. If you continue, we assume you agree with our cookie policy.